createdAt,value
2022-10-14T00:01:19.943Z,98911.76
2022-10-14T00:04:05.111Z,98911.41
2022-10-14T00:06:33.863Z,98918.38
2022-10-14T00:09:04.997Z,98919.58
2022-10-14T00:11:34.273Z,98917.33
2022-10-14T00:14:13.435Z,98912.63
2022-10-14T00:16:44.343Z,98911.77
2022-10-14T00:19:12.745Z,98907.94
2022-10-14T00:21:43.212Z,98912.11
2022-10-14T00:24:13.444Z,98915.41
2022-10-14T00:26:40.947Z,98911.05
2022-10-14T00:29:13.028Z,98905.47
2022-10-14T00:31:40.272Z,98905.66
2022-10-14T00:34:07.524Z,98898.70
2022-10-14T00:36:34.850Z,98895.75
2022-10-14T00:39:02.836Z,98890.89
2022-10-14T00:41:33.537Z,98885.66
2022-10-14T00:44:02.627Z,98885.30
2022-10-14T00:46:35.619Z,98888.25
2022-10-14T00:49:13.592Z,98888.77
2022-10-14T00:51:44.676Z,98890.69
2022-10-14T00:54:15.262Z,98887.73
2022-10-14T00:56:44.705Z,98884.96
2022-10-14T00:59:12.807Z,98894.52
2022-10-14T01:01:40.560Z,98899.33
2022-10-14T01:04:08.112Z,98889.73
2022-10-14T01:07:00.258Z,98890.04
2022-10-14T01:09:34.957Z,98894.04
2022-10-14T01:12:29.511Z,98894.55
2022-10-14T01:15:38.065Z,98890.91
2022-10-14T01:18:18.025Z,98884.84
2022-10-14T01:21:03.641Z,98888.48
2022-10-14T01:23:56.536Z,98889.01
2022-10-14T01:26:36.160Z,98886.57
2022-10-14T01:29:45.080Z,98881.70
2022-10-14T01:32:48.308Z,98882.39
2022-10-14T01:35:31.029Z,98878.38
2022-10-14T01:38:03.197Z,98882.54
2022-10-14T01:40:41.728Z,98882.56
2022-10-14T01:43:13.125Z,98883.25
2022-10-14T01:45:43.611Z,98882.91
2022-10-14T01:48:17.239Z,98882.74
2022-10-14T01:50:49.691Z,98879.08
2022-10-14T01:53:31.636Z,98878.04
2022-10-14T01:56:00.526Z,98877.52
2022-10-14T01:58:31.390Z,98875.27
2022-10-14T02:00:58.621Z,98872.34
2022-10-14T02:03:26.839Z,98873.02
2022-10-14T02:06:01.121Z,98871.82
2022-10-14T02:08:53.234Z,98869.74
2022-10-14T02:11:22.139Z,98867.70
2022-10-14T02:14:12.285Z,98871.00
2022-10-14T02:17:06.541Z,98871.17
2022-10-14T02:19:42.088Z,98869.25
2022-10-14T02:22:41.179Z,98868.38
2022-10-14T02:25:19.628Z,98866.65
2022-10-14T02:27:50.124Z,98868.39
2022-10-14T02:30:18.485Z,98869.29
2022-10-14T02:32:51.615Z,98866.85
2022-10-14T02:35:21.364Z,98865.80
2022-10-14T02:37:50.823Z,98863.54
2022-10-14T02:40:24.994Z,98862.67
2022-10-14T02:42:55.253Z,98859.71
2022-10-14T02:45:27.138Z,98849.14
2022-10-14T02:47:54.301Z,98848.08
2022-10-14T02:50:21.866Z,98846.17
2022-10-14T02:52:52.783Z,98844.77
2022-10-14T02:55:21.620Z,98848.08
2022-10-14T02:57:48.895Z,98847.20
2022-10-14T03:00:17.341Z,98846.14
2022-10-14T03:02:44.721Z,98848.75
2022-10-14T03:05:13.393Z,98845.45
2022-10-14T03:07:41.613Z,98845.45
2022-10-14T03:10:11.168Z,98840.43
2022-10-14T03:12:38.300Z,98844.09
2022-10-14T03:15:07.488Z,98844.61
2022-10-14T03:17:35.514Z,98847.38
2022-10-14T03:20:05.732Z,98849.27
2022-10-14T03:22:34.860Z,98852.52
2022-10-14T03:25:02.490Z,98855.09
2022-10-14T03:27:39.964Z,98859.78
2022-10-14T03:30:10.149Z,98855.94
2022-10-14T03:32:42.462Z,98856.14
2022-10-14T03:35:35.848Z,98858.08
2022-10-14T03:38:08.497Z,98858.77
2022-10-14T03:40:35.947Z,98860.90
2022-10-14T03:43:06.420Z,98861.80
2022-10-14T03:45:40.138Z,98860.93
2022-10-14T03:48:09.182Z,98859.38
2022-10-14T03:50:39.189Z,98858.87
2022-10-14T03:53:07.965Z,98860.61
2022-10-14T03:55:37.032Z,98861.30
2022-10-14T03:58:05.418Z,98860.79
2022-10-14T04:00:35.713Z,98856.61
2022-10-14T04:03:24.960Z,98856.61
2022-10-14T04:05:52.400Z,98853.14
2022-10-14T04:08:22.774Z,98850.36
2022-10-14T04:10:55.695Z,98852.30
2022-10-14T04:13:23.310Z,98852.64
2022-10-14T04:15:50.593Z,98850.02
2022-10-14T04:18:24.929Z,98848.80
2022-10-14T04:20:53.422Z,98847.23
2022-10-14T04:23:21.903Z,98842.89
2022-10-14T04:25:52.272Z,98840.98
2022-10-14T04:28:20.564Z,98840.28
2022-10-14T04:30:58.933Z,98839.58
2022-10-14T04:33:28.926Z,98841.33
2022-10-14T04:35:59.632Z,98839.41
2022-10-14T04:38:30.912Z,98839.06
2022-10-14T04:41:01.992Z,98836.27
2022-10-14T04:43:30.243Z,98834.35
2022-10-14T04:45:59.075Z,98830.18
2022-10-14T04:48:26.858Z,98832.80
2022-10-14T04:50:55.248Z,98826.70
2022-10-14T04:53:49.567Z,98823.74
2022-10-14T04:56:29.060Z,98823.23
2022-10-14T04:59:00.836Z,98822.02
2022-10-14T05:02:03.406Z,98822.85
2022-10-14T05:04:39.912Z,98822.16
2022-10-14T05:07:07.316Z,98825.46
2022-10-14T05:09:34.808Z,98824.77
2022-10-14T05:12:04.279Z,98821.64
2022-10-14T05:14:40.587Z,98825.13
2022-10-14T05:17:20.244Z,98821.48
2022-10-14T05:19:47.476Z,98820.95
2022-10-14T05:22:15.181Z,98818.70
2022-10-14T05:24:46.038Z,98817.30
2022-10-14T05:27:13.775Z,98815.05
2022-10-14T05:29:41.721Z,98812.09
2022-10-14T05:32:09.844Z,98809.65
2022-10-14T05:34:40.905Z,98807.75
2022-10-14T05:37:10.713Z,98809.48
2022-10-14T05:39:43.754Z,98804.80
2022-10-14T05:42:12.081Z,98804.98
2022-10-14T05:44:40.722Z,98805.15
2022-10-14T05:47:10.201Z,98805.85
2022-10-14T05:49:38.064Z,98803.25
2022-10-14T05:52:05.752Z,98800.29
2022-10-14T05:54:33.660Z,98798.90
2022-10-14T05:57:03.839Z,98804.99
2022-10-14T05:59:33.297Z,98808.84
2022-10-14T06:02:02.626Z,98809.00
2022-10-14T06:04:29.995Z,98808.98
2022-10-14T06:06:58.758Z,98811.25
2022-10-14T06:09:26.478Z,98811.09
2022-10-14T06:11:54.201Z,98809.33
2022-10-14T06:14:22.761Z,98810.55
2022-10-14T06:16:52.183Z,98811.08
2022-10-14T06:19:19.547Z,98813.41
2022-10-14T06:21:46.792Z,98813.64
2022-10-14T06:24:14.885Z,98816.92
2022-10-14T06:26:41.972Z,98814.98
2022-10-14T06:29:09.089Z,98819.73
2022-10-14T06:31:36.517Z,98820.67
2022-10-14T06:34:07.909Z,98821.06
2022-10-14T06:36:36.653Z,98820.36
2022-10-14T06:39:05.215Z,98823.82
2022-10-14T06:41:34.990Z,98824.40
2022-10-14T06:44:02.208Z,98816.60
2022-10-14T06:46:30.941Z,98814.17
2022-10-14T06:48:58.269Z,98816.63
2022-10-14T06:51:25.514Z,98817.32
2022-10-14T06:53:53.099Z,98816.11
2022-10-14T06:56:20.458Z,98818.23
2022-10-14T06:58:47.504Z,98816.69
2022-10-14T07:01:15.102Z,98816.88
2022-10-14T07:03:42.576Z,98816.20
2022-10-14T07:06:09.878Z,98814.48
2022-10-14T07:08:37.857Z,98814.33
2022-10-14T07:11:05.484Z,98818.86
2022-10-14T07:13:34.296Z,98815.55
2022-10-14T07:16:02.371Z,98817.48
2022-10-14T07:18:29.987Z,98818.70
2022-10-14T07:21:01.231Z,98821.47
2022-10-14T07:23:28.780Z,98823.70
2022-10-14T07:25:57.234Z,98822.30
2022-10-14T07:28:24.653Z,98819.33
2022-10-14T07:30:59.510Z,98819.30
2022-10-14T07:33:27.093Z,98821.38
2022-10-14T07:35:55.488Z,98818.04
2022-10-14T07:38:22.959Z,98819.21
2022-10-14T07:40:58.253Z,98819.86
2022-10-14T07:43:26.009Z,98821.18
2022-10-14T07:45:59.800Z,98821.40
2022-10-14T07:48:52.258Z,98823.70
2022-10-14T07:51:19.516Z,98823.48
2022-10-14T07:53:48.573Z,98824.45
2022-10-14T07:56:16.407Z,98823.27
2022-10-14T07:58:44.715Z,98818.29
2022-10-14T08:01:15.075Z,98823.66
2022-10-14T08:03:43.323Z,98821.45
2022-10-14T08:06:11.436Z,98815.34
2022-10-14T08:08:40.207Z,98817.15
2022-10-14T08:11:16.210Z,98820.54
2022-10-14T08:13:47.468Z,98820.95
2022-10-14T08:16:22.900Z,98819.95
2022-10-14T08:18:51.106Z,98826.02
2022-10-14T08:21:19.582Z,98824.35
2022-10-14T08:23:47.355Z,98825.61
2022-10-14T08:26:28.190Z,98827.29
2022-10-14T08:28:55.412Z,98832.52
2022-10-14T08:31:23.088Z,98832.27
2022-10-14T08:33:50.189Z,98830.28
2022-10-14T08:36:19.212Z,98829.87
2022-10-14T08:38:47.654Z,98831.66
2022-10-14T08:41:26.959Z,98829.52
2022-10-14T08:44:07.555Z,98831.41
2022-10-14T08:46:48.089Z,98823.15
2022-10-14T08:49:42.506Z,98827.77
2022-10-14T08:52:26.627Z,98826.98
2022-10-14T08:55:00.806Z,98825.77
2022-10-14T08:57:42.942Z,98826.10
2022-10-14T09:00:12.065Z,98825.48
2022-10-14T09:02:51.149Z,98820.83
2022-10-14T09:05:22.539Z,98817.63
2022-10-14T09:07:52.347Z,98819.92
2022-10-14T09:10:43.569Z,98821.13
2022-10-14T09:13:18.307Z,98817.52
2022-10-14T09:15:50.075Z,98819.35
2022-10-14T09:18:37.586Z,98817.27
2022-10-14T09:21:40.357Z,98813.73
2022-10-14T09:24:25.412Z,98815.20
2022-10-14T09:29:42.845Z,98811.95
2022-10-14T09:32:19.617Z,98806.91
2022-10-14T09:34:51.557Z,98809.45
2022-10-14T09:37:34.287Z,98809.80
2022-10-14T09:40:21.718Z,98814.14
2022-10-14T09:43:29.254Z,98813.21
2022-10-14T09:45:56.935Z,98809.14
2022-10-14T09:48:35.219Z,98808.86
2022-10-14T09:51:10.293Z,98809.50
2022-10-14T09:53:44.983Z,98807.30
2022-10-14T09:56:13.237Z,98804.56
2022-10-14T09:58:50.749Z,98802.66
2022-10-14T10:01:25.115Z,98802.18
2022-10-14T10:03:55.494Z,98805.27
2022-10-14T10:06:31.491Z,98804.01
2022-10-14T10:08:59.827Z,98805.06
2022-10-14T10:11:37.398Z,98805.52
2022-10-14T10:14:25.550Z,98802.23
2022-10-14T10:17:07.987Z,98801.89
2022-10-14T10:19:39.325Z,98796.86
2022-10-14T10:22:26.117Z,98795.44
2022-10-14T10:25:06.271Z,98798.54
2022-10-14T10:27:45.840Z,98795.89
2022-10-14T10:30:48.221Z,98789.71
2022-10-14T10:33:36.865Z,98785.45
2022-10-14T10:38:55.157Z,98788.21
2022-10-14T10:41:41.091Z,98788.75
2022-10-14T10:44:33.659Z,98789.23
2022-10-14T10:47:24.109Z,98791.91
2022-10-14T10:50:08.523Z,98791.86
2022-10-14T10:52:56.249Z,98788.99
2022-10-14T10:55:39.989Z,98789.55
2022-10-14T10:58:46.907Z,98783.33
2022-10-14T11:01:38.735Z,98783.29
2022-10-14T11:04:42.638Z,98780.91
2022-10-14T11:08:03.193Z,98776.71
2022-10-14T11:11:06.064Z,98772.91
2022-10-14T11:13:45.289Z,98767.79
2022-10-14T11:16:29.242Z,98767.96
2022-10-14T11:19:05.803Z,98768.61
2022-10-14T11:22:04.394Z,98770.52
2022-10-14T11:24:54.288Z,98768.64
2022-10-14T11:27:38.268Z,98769.86
2022-10-14T11:30:15.434Z,98769.66
2022-10-14T11:32:52.064Z,98768.35
2022-10-14T11:35:56.411Z,98766.54
2022-10-14T11:38:54.524Z,98765.81
2022-10-14T11:41:52.996Z,98763.16
2022-10-14T11:44:38.184Z,98764.98
2022-10-14T11:47:16.120Z,98763.22
2022-10-14T11:50:00.486Z,98760.63
2022-10-14T11:52:31.639Z,98761.51
2022-10-14T11:55:09.685Z,98760.61
2022-10-14T11:57:48.036Z,98762.48
2022-10-14T12:00:35.933Z,98756.46
2022-10-14T12:03:09.540Z,98754.95
2022-10-14T12:05:40.987Z,98751.23
2022-10-14T12:08:28.498Z,98751.39
2022-10-14T12:11:10.467Z,98751.21
2022-10-14T12:13:54.476Z,98744.77
2022-10-14T12:16:23.814Z,98740.45
2022-10-14T12:18:55.765Z,98739.70
2022-10-14T12:22:08.122Z,98738.16
2022-10-14T12:24:42.499Z,98737.80
2022-10-14T12:27:12.462Z,98731.11
2022-10-14T12:29:45.698Z,98732.31
2022-10-14T12:32:15.987Z,98732.48
2022-10-14T12:34:43.854Z,98723.96
2022-10-14T12:37:34.760Z,98719.79
2022-10-14T12:40:03.054Z,98717.54
2022-10-14T12:42:34.847Z,98716.80
2022-10-14T12:45:15.200Z,98714.04
2022-10-14T12:47:44.390Z,98711.64
2022-10-14T12:50:14.735Z,98711.02
2022-10-14T12:52:55.414Z,98708.24
2022-10-14T12:55:25.747Z,98707.20
2022-10-14T12:57:54.803Z,98702.33
2022-10-14T13:00:21.987Z,98702.05
2022-10-14T13:02:53.154Z,98699.77
2022-10-14T13:05:42.564Z,98701.05
2022-10-14T13:08:27.745Z,98701.40
2022-10-14T13:10:54.991Z,98700.64
2022-10-14T13:13:53.098Z,98701.16
2022-10-14T13:16:23.164Z,98702.30
2022-10-14T13:18:54.340Z,98701.17
2022-10-14T13:21:34.047Z,98699.31
2022-10-14T13:24:17.266Z,98699.77
2022-10-14T13:26:58.184Z,98696.58
2022-10-14T13:29:42.407Z,98695.84
2022-10-14T13:32:12.473Z,98695.48
2022-10-14T13:34:45.885Z,98697.38
2022-10-14T13:37:41.934Z,98698.61
2022-10-14T13:40:29.948Z,98696.48
2022-10-14T13:43:00.084Z,98697.06
2022-10-14T13:45:42.232Z,98694.46
2022-10-14T13:48:16.672Z,98691.52
2022-10-14T13:50:47.656Z,98691.54
2022-10-14T13:53:17.271Z,98690.30
2022-10-14T13:55:54.251Z,98687.16
2022-10-14T13:58:24.158Z,98683.80
2022-10-14T14:00:58.086Z,98684.85
2022-10-14T14:03:35.779Z,98688.48
2022-10-14T14:06:11.261Z,98686.18
2022-10-14T14:08:47.645Z,98686.86
2022-10-14T14:11:35.428Z,98686.34
2022-10-14T14:14:06.844Z,98686.51
2022-10-14T14:16:54.936Z,98690.55
2022-10-14T14:19:25.593Z,98689.90
2022-10-14T14:22:24.187Z,98691.34
2022-10-14T14:24:51.638Z,98690.39
2022-10-14T14:27:23.150Z,98691.79
2022-10-14T14:29:53.767Z,98688.46
2022-10-14T14:32:28.267Z,98690.39
2022-10-14T14:34:56.173Z,98687.39
2022-10-14T14:37:55.617Z,98682.73
2022-10-14T14:40:30.212Z,98683.72
2022-10-14T14:43:00.676Z,98686.96
2022-10-14T14:45:46.171Z,98686.86
2022-10-14T14:48:15.898Z,98686.77
2022-10-14T14:50:44.837Z,98687.70
2022-10-14T14:53:21.567Z,98688.31
2022-10-14T14:56:14.319Z,98686.30
2022-10-14T14:58:42.196Z,98680.41
2022-10-14T15:01:24.765Z,98683.48
2022-10-14T15:04:13.196Z,98682.64
2022-10-14T15:06:51.320Z,98684.69
2022-10-14T15:09:43.212Z,98686.05
2022-10-14T15:12:20.435Z,98684.65
2022-10-14T15:14:52.672Z,98682.21
2022-10-14T15:17:25.941Z,98680.55
2022-10-14T15:19:57.803Z,98677.45
2022-10-14T15:22:37.466Z,98680.27
2022-10-14T15:25:07.769Z,98680.30
2022-10-14T15:27:35.095Z,98678.42
2022-10-14T15:30:24.011Z,98677.61
2022-10-14T15:32:52.632Z,98680.09
2022-10-14T15:35:21.394Z,98674.70
2022-10-14T15:37:49.970Z,98672.10
2022-10-14T15:40:29.436Z,98665.66
2022-10-14T15:42:57.919Z,98665.33
2022-10-14T15:45:25.662Z,98667.31
2022-10-14T15:47:58.326Z,98666.83
2022-10-14T15:50:26.267Z,98662.98
2022-10-14T15:52:55.241Z,98660.68
2022-10-14T15:55:29.645Z,98661.41
2022-10-14T15:57:57.015Z,98660.27
2022-10-14T16:00:25.505Z,98662.55
2022-10-14T16:03:00.515Z,98661.34
2022-10-14T16:05:29.246Z,98661.58
2022-10-14T16:07:57.113Z,98660.23
2022-10-14T16:10:25.875Z,98658.52
2022-10-14T16:12:55.904Z,98659.44
2022-10-14T16:15:30.693Z,98656.52
2022-10-14T16:17:58.622Z,98654.61
2022-10-14T16:20:26.613Z,98647.97
2022-10-14T16:22:54.055Z,98645.52
2022-10-14T16:25:39.029Z,98646.90
2022-10-14T16:28:09.878Z,98647.96
2022-10-14T16:30:40.322Z,98651.11
2022-10-14T16:33:07.844Z,98648.52
2022-10-14T16:35:35.105Z,98643.79
2022-10-14T16:38:02.298Z,98644.55
2022-10-14T16:40:34.290Z,98643.73
2022-10-14T16:43:05.938Z,98645.95
2022-10-14T16:45:33.294Z,98646.92
2022-10-14T16:48:00.556Z,98645.98
2022-10-14T16:50:28.835Z,98641.93
2022-10-14T16:53:15.112Z,98637.30
2022-10-14T16:55:42.748Z,98627.61
2022-10-14T16:58:10.443Z,98623.66
2022-10-14T17:00:37.822Z,98628.08
2022-10-14T17:03:10.861Z,98628.16
2022-10-14T17:05:39.221Z,98629.48
2022-10-14T17:08:06.643Z,98635.00
2022-10-14T17:10:34.648Z,98634.38
2022-10-14T17:13:02.430Z,98640.17
2022-10-14T17:15:30.290Z,98641.92
2022-10-14T17:17:57.747Z,98640.34
2022-10-14T17:20:25.935Z,98641.05
2022-10-14T17:22:53.105Z,98640.21
2022-10-14T17:25:20.690Z,98641.84
2022-10-14T17:27:49.013Z,98635.98
2022-10-14T17:30:18.396Z,98631.35
2022-10-14T17:32:46.999Z,98631.06
2022-10-14T17:35:15.456Z,98632.33
2022-10-14T17:37:44.457Z,98631.14
2022-10-14T17:40:12.864Z,98633.27
2022-10-14T17:42:41.633Z,98634.34
2022-10-14T17:45:09.439Z,98632.95
2022-10-14T17:47:37.256Z,98634.02
2022-10-14T17:50:06.658Z,98630.72
2022-10-14T17:52:33.768Z,98628.10
2022-10-14T17:55:01.647Z,98634.03
2022-10-14T17:57:29.364Z,98631.23
2022-10-14T17:59:57.238Z,98632.98
2022-10-14T18:02:24.713Z,98630.05
2022-10-14T18:04:52.081Z,98627.30
2022-10-14T18:07:22.347Z,98627.67
2022-10-14T18:09:50.538Z,98625.13
2022-10-14T18:12:17.565Z,98624.48
2022-10-14T18:14:44.721Z,98623.67
2022-10-14T18:17:12.978Z,98625.10
2022-10-14T18:19:41.336Z,98624.58
2022-10-14T18:22:10.656Z,98622.34
2022-10-14T18:24:39.473Z,98620.79
2022-10-14T18:27:06.752Z,98616.45
2022-10-14T18:29:33.805Z,98615.79
2022-10-14T18:32:01.354Z,98613.03
2022-10-14T18:34:28.497Z,98610.94
2022-10-14T18:36:55.544Z,98611.98
2022-10-14T18:39:23.934Z,98606.77
2022-10-14T18:41:51.090Z,98601.91
2022-10-14T18:44:18.310Z,98605.24
2022-10-14T18:46:47.391Z,98604.89
2022-10-14T18:49:14.699Z,98608.05
2022-10-14T18:51:42.968Z,98607.00
2022-10-14T18:54:23.553Z,98606.28
2022-10-14T18:56:50.677Z,98606.09
2022-10-14T18:59:21.150Z,98606.27
2022-10-14T19:01:53.117Z,98608.89
2022-10-14T19:04:23.903Z,98609.77
2022-10-14T19:06:50.908Z,98610.14
2022-10-14T19:09:21.354Z,98611.17
2022-10-14T19:11:52.698Z,98610.14
2022-10-14T19:14:22.470Z,98606.28
2022-10-14T19:16:50.337Z,98609.77
2022-10-14T19:19:19.565Z,98606.81
2022-10-14T19:21:53.892Z,98602.11
2022-10-14T19:24:21.491Z,98602.66
2022-10-14T19:26:49.523Z,98604.05
2022-10-14T19:29:17.126Z,98605.27
2022-10-14T19:31:44.503Z,98602.64
2022-10-14T19:34:14.528Z,98601.09
2022-10-14T19:36:43.184Z,98604.73
2022-10-14T19:39:13.977Z,98600.05
2022-10-14T19:41:44.697Z,98600.25
2022-10-14T19:44:13.451Z,98596.09
2022-10-14T19:46:41.691Z,98596.80
2022-10-14T19:49:13.754Z,98596.09
2022-10-14T19:51:42.491Z,98596.61
2022-10-14T19:54:11.807Z,98593.47
2022-10-14T19:56:39.635Z,98591.38
2022-10-14T19:59:06.984Z,98590.00
2022-10-14T20:01:34.274Z,98588.99
2022-10-14T20:04:02.438Z,98589.35
2022-10-14T20:06:33.432Z,98590.41
2022-10-14T20:09:01.311Z,98593.37
2022-10-14T20:11:30.984Z,98597.90
2022-10-14T20:13:59.078Z,98597.73
2022-10-14T20:16:26.945Z,98593.38
2022-10-14T20:18:55.885Z,98589.69
2022-10-14T20:21:23.598Z,98591.06
2022-10-14T20:23:50.715Z,98586.21
2022-10-14T20:26:20.880Z,98581.84
2022-10-14T20:28:49.495Z,98581.31
2022-10-14T20:31:18.912Z,98579.73
2022-10-14T20:33:46.590Z,98575.38
2022-10-14T20:36:16.915Z,98574.87
2022-10-14T20:38:44.910Z,98576.32
2022-10-14T20:41:21.238Z,98573.91
2022-10-14T20:43:49.271Z,98571.13
2022-10-14T20:46:17.555Z,98571.14
2022-10-14T20:48:45.205Z,98572.87
2022-10-14T20:51:19.697Z,98569.38
2022-10-14T20:53:47.626Z,98565.88
2022-10-14T20:56:15.348Z,98561.52
2022-10-14T20:58:42.463Z,98556.30
2022-10-14T21:01:16.318Z,98553.69
2022-10-14T21:03:45.534Z,98550.55
2022-10-14T21:06:16.494Z,98544.48
2022-10-14T21:08:44.157Z,98537.39
2022-10-14T21:11:15.392Z,98535.67
2022-10-14T21:13:45.391Z,98534.80
2022-10-14T21:16:33.364Z,98535.85
2022-10-14T21:19:03.775Z,98528.71
2022-10-14T21:21:36.445Z,98529.42
2022-10-14T21:24:03.817Z,98531.19
2022-10-14T21:26:31.594Z,98521.98
2022-10-14T21:29:01.806Z,98510.33
2022-10-14T21:31:29.251Z,98510.14
2022-10-14T21:34:04.140Z,98507.92
2022-10-14T21:36:34.787Z,98508.83
2022-10-14T21:39:10.787Z,98507.47
2022-10-14T21:41:39.270Z,98506.80
2022-10-14T21:44:08.296Z,98504.72
2022-10-14T21:46:36.251Z,98504.52
2022-10-14T21:49:04.431Z,98508.69
2022-10-14T21:51:32.422Z,98512.52
2022-10-14T21:54:00.520Z,98509.21
2022-10-14T21:56:28.561Z,98501.59
2022-10-14T21:58:56.394Z,98504.59
2022-10-14T22:01:29.501Z,98503.93
2022-10-14T22:03:59.508Z,98493.36
2022-10-14T22:06:27.744Z,98486.43
2022-10-14T22:08:57.602Z,98483.14
2022-10-14T22:11:31.477Z,98481.09
2022-10-14T22:14:00.890Z,98477.81
2022-10-14T22:16:28.818Z,98473.98
2022-10-14T22:18:59.204Z,98470.16
2022-10-14T22:21:29.362Z,98465.14
2022-10-14T22:23:58.036Z,98466.35
2022-10-14T22:26:26.569Z,98465.46
2022-10-14T22:29:06.457Z,98467.90
2022-10-14T22:31:34.536Z,98473.98
2022-10-14T22:34:04.967Z,98468.42
2022-10-14T22:36:34.175Z,98463.90
2022-10-14T22:39:05.640Z,98463.55
2022-10-14T22:41:35.664Z,98461.96
2022-10-14T22:44:05.656Z,98466.64
2022-10-14T22:46:35.366Z,98463.51
2022-10-14T22:49:03.117Z,98463.15
2022-10-14T22:51:33.980Z,98464.71
2022-10-14T22:54:01.392Z,98461.60
2022-10-14T22:56:30.323Z,98461.27
2022-10-14T22:59:01.456Z,98458.80
2022-10-14T23:01:28.820Z,98457.91
2022-10-14T23:03:57.838Z,98456.83
2022-10-14T23:06:26.278Z,98455.77
2022-10-14T23:08:54.134Z,98451.77
2022-10-14T23:11:23.793Z,98448.44
2022-10-14T23:13:51.719Z,98444.09
2022-10-14T23:16:21.111Z,98439.75
2022-10-14T23:18:49.112Z,98439.39
2022-10-14T23:21:20.757Z,98439.91
2022-10-14T23:23:50.097Z,98444.64
2022-10-14T23:26:23.092Z,98437.91
2022-10-14T23:28:52.387Z,98436.73
2022-10-14T23:31:22.670Z,98435.34
2022-10-14T23:33:52.052Z,98430.30
2022-10-14T23:36:21.310Z,98419.86
2022-10-14T23:38:49.532Z,98419.98
2022-10-14T23:41:16.906Z,98414.92
2022-10-14T23:43:44.144Z,98416.48
2022-10-14T23:46:12.045Z,98409.15
2022-10-14T23:48:39.788Z,98412.80
2022-10-14T23:51:07.771Z,98411.23
2022-10-14T23:53:35.634Z,98409.11
2022-10-14T23:56:05.584Z,98409.45
2022-10-14T23:58:33.006Z,98409.08
